createdAt,value
2023-03-05T00:00:01.691Z,102301.22
2023-03-05T00:02:31.750Z,102302.06
2023-03-05T00:04:59.556Z,102298.56
2023-03-05T00:07:29.451Z,102295.00
2023-03-05T00:10:00.379Z,102291.47
2023-03-05T00:12:28.169Z,102290.44
2023-03-05T00:14:56.018Z,102287.69
2023-03-05T00:17:25.176Z,102283.16
2023-03-05T00:19:52.974Z,102277.84
2023-03-05T00:22:20.670Z,102283.25
2023-03-05T00:24:51.587Z,102277.84
2023-03-05T00:27:19.569Z,102277.84
2023-03-05T00:29:47.344Z,102277.03
2023-03-05T00:32:15.206Z,102271.88
2023-03-05T00:34:44.398Z,102272.91
2023-03-05T00:37:12.185Z,102270.22
2023-03-05T00:39:39.942Z,102264.88
2023-03-05T00:42:08.410Z,102263.13
2023-03-05T00:44:36.606Z,102262.34
2023-03-05T00:47:05.154Z,102265.97
2023-03-05T00:49:33.048Z,102255.28
2023-03-05T00:52:02.151Z,102258.09
2023-03-05T00:54:29.877Z,102253.78
2023-03-05T00:56:57.684Z,102260.09
2023-03-05T00:59:25.440Z,102244.25
2023-03-05T01:01:53.234Z,102251.50
2023-03-05T01:04:21.047Z,102240.00
2023-03-05T01:06:48.838Z,102246.31
2023-03-05T01:09:17.990Z,102241.16
2023-03-05T01:11:45.734Z,102242.13
2023-03-05T01:14:13.712Z,102236.16
2023-03-05T01:16:41.515Z,102230.88
2023-03-05T01:19:09.562Z,102236.28
2023-03-05T01:21:38.051Z,102224.84
2023-03-05T01:24:06.970Z,102232.16
2023-03-05T01:26:36.158Z,102228.72
2023-03-05T01:29:04.021Z,102221.66
2023-03-05T01:31:31.858Z,102215.56
2023-03-05T01:34:00.210Z,102220.19
2023-03-05T01:36:28.095Z,102203.28
2023-03-05T01:38:55.840Z,102199.69
2023-03-05T01:41:23.587Z,102206.81
2023-03-05T01:43:53.273Z,102200.63
2023-03-05T01:46:32.585Z,102198.94
2023-03-05T01:49:05.441Z,102188.34
2023-03-05T01:51:38.334Z,102195.59
2023-03-05T01:54:08.497Z,102181.28
2023-03-05T01:56:36.982Z,102182.22
2023-03-05T01:59:06.148Z,102173.22
2023-03-05T02:01:37.851Z,102170.59
2023-03-05T02:04:06.404Z,102168.84
2023-03-05T02:06:34.931Z,102163.50
2023-03-05T02:09:02.721Z,102152.75
2023-03-05T02:11:30.903Z,102156.44
2023-03-05T02:13:59.221Z,102159.13
2023-03-05T02:16:35.798Z,102155.47
2023-03-05T02:19:04.176Z,102142.94
2023-03-05T02:21:39.774Z,102138.41
2023-03-05T02:24:08.066Z,102133.03
2023-03-05T02:26:35.804Z,102132.19
2023-03-05T02:29:06.478Z,102124.19
2023-03-05T02:31:34.310Z,102128.75
2023-03-05T02:34:02.117Z,102120.69
2023-03-05T02:36:29.864Z,102118.94
2023-03-05T02:38:59.248Z,102118.13
2023-03-05T02:41:27.693Z,102115.50
2023-03-05T02:43:55.509Z,102114.56
2023-03-05T02:46:23.284Z,102102.94
2023-03-05T02:48:51.026Z,102104.66
2023-03-05T02:51:19.103Z,102100.22
2023-03-05T02:53:46.843Z,102101.41
2023-03-05T02:56:15.939Z,102099.72
2023-03-05T02:58:43.829Z,102099.84
2023-03-05T03:01:11.660Z,102090.13
2023-03-05T03:03:39.504Z,102090.19
2023-03-05T03:06:08.308Z,102083.06
2023-03-05T03:08:36.115Z,102077.81
2023-03-05T03:11:08.908Z,102084.16
2023-03-05T03:13:38.049Z,102077.03
2023-03-05T03:16:07.646Z,102078.88
2023-03-05T03:18:35.448Z,102078.22
2023-03-05T03:21:03.710Z,102072.91
2023-03-05T03:23:32.141Z,102063.13
2023-03-05T03:25:59.966Z,102056.84
2023-03-05T03:28:27.686Z,102054.16
2023-03-05T03:30:56.830Z,102055.06
2023-03-05T03:33:24.647Z,102047.88
2023-03-05T03:35:52.412Z,102050.53
2023-03-05T03:38:20.177Z,102046.00
2023-03-05T03:40:47.912Z,102048.78
2023-03-05T03:43:15.644Z,102039.88
2023-03-05T03:45:43.749Z,102038.88
2023-03-05T03:48:12.889Z,102037.00
2023-03-05T03:50:41.102Z,102036.00
2023-03-05T03:53:09.828Z,102032.44
2023-03-05T03:55:37.553Z,102030.56
2023-03-05T03:58:08.004Z,102027.78
2023-03-05T04:00:36.012Z,102025.94
2023-03-05T04:03:03.772Z,102026.78
2023-03-05T04:05:32.976Z,102033.13
2023-03-05T04:08:01.452Z,102021.41
2023-03-05T04:10:29.198Z,102022.97
2023-03-05T04:12:56.870Z,102028.31
2023-03-05T04:15:25.030Z,102024.16
2023-03-05T04:17:52.913Z,102025.84
2023-03-05T04:20:20.714Z,102028.41
2023-03-05T04:22:50.069Z,102024.53
2023-03-05T04:25:18.062Z,102013.78
2023-03-05T04:27:45.749Z,102011.94
2023-03-05T04:30:15.587Z,101998.53
2023-03-05T04:32:43.374Z,102003.84
2023-03-05T04:35:11.308Z,101990.34
2023-03-05T04:37:39.099Z,101994.72
2023-03-05T04:40:09.653Z,101991.88
2023-03-05T04:42:37.384Z,101991.09
2023-03-05T04:45:06.717Z,101986.84
2023-03-05T04:47:35.406Z,101983.31
2023-03-05T04:50:03.855Z,101980.81
2023-03-05T04:52:31.689Z,101986.19
2023-03-05T04:54:59.761Z,101982.66
2023-03-05T04:57:28.820Z,101977.13
2023-03-05T04:59:56.779Z,101975.25
2023-03-05T05:02:24.516Z,101975.09
2023-03-05T05:04:54.048Z,101963.44
2023-03-05T05:07:21.914Z,101956.97
2023-03-05T05:09:49.665Z,101956.00
2023-03-05T05:12:17.348Z,101952.34
2023-03-05T05:14:46.436Z,101951.41
2023-03-05T05:17:15.840Z,101950.47
2023-03-05T05:19:43.593Z,101947.03
2023-03-05T05:22:11.317Z,101944.25
2023-03-05T05:24:39.043Z,101945.19
2023-03-05T05:27:07.231Z,101941.69
2023-03-05T05:29:35.004Z,101944.28
2023-03-05T05:32:07.399Z,101944.28
2023-03-05T05:34:35.207Z,101952.50
2023-03-05T05:37:03.133Z,101955.84
2023-03-05T05:39:30.828Z,101944.16
2023-03-05T05:41:58.561Z,101928.88
2023-03-05T05:44:26.349Z,101924.28
2023-03-05T05:46:54.108Z,101926.03
2023-03-05T05:49:23.242Z,101925.91
2023-03-05T05:51:51.022Z,101926.78
2023-03-05T05:54:18.742Z,101921.50
2023-03-05T05:56:46.485Z,101925.00
2023-03-05T05:59:14.256Z,101926.78
2023-03-05T06:01:42.151Z,101922.31
2023-03-05T06:04:09.963Z,101917.78
2023-03-05T06:06:39.067Z,101921.41
2023-03-05T06:09:06.943Z,101916.94
2023-03-05T06:11:35.087Z,101912.50
2023-03-05T06:14:03.749Z,101915.19
2023-03-05T06:16:32.020Z,101922.34
2023-03-05T06:19:00.120Z,101912.63
2023-03-05T06:21:27.849Z,101912.63
2023-03-05T06:23:58.727Z,101920.75
2023-03-05T06:26:27.264Z,101917.25
2023-03-05T06:28:55.358Z,101919.94
2023-03-05T06:31:26.358Z,101917.31
2023-03-05T06:33:56.229Z,101917.31
2023-03-05T06:36:25.791Z,101920.09
2023-03-05T06:38:54.618Z,101923.63
2023-03-05T06:41:25.598Z,101919.19
2023-03-05T06:43:53.523Z,101918.25
2023-03-05T06:46:23.680Z,101915.53
2023-03-05T06:48:52.145Z,101920.81
2023-03-05T06:51:22.828Z,101918.25
2023-03-05T06:53:50.872Z,101915.53
2023-03-05T06:56:19.315Z,101913.72
2023-03-05T06:58:50.597Z,101912.84
2023-03-05T07:01:18.903Z,101909.28
2023-03-05T07:03:50.443Z,101912.09
2023-03-05T07:06:18.494Z,101908.53
2023-03-05T07:08:46.214Z,101908.53
2023-03-05T07:11:15.483Z,101914.72
2023-03-05T07:13:44.461Z,101903.97
2023-03-05T07:16:17.139Z,101909.19
2023-03-05T07:18:45.021Z,101897.72
2023-03-05T07:21:17.784Z,101909.34
2023-03-05T07:23:45.591Z,101904.72
2023-03-05T07:26:13.650Z,101906.66
2023-03-05T07:28:42.091Z,101896.66
2023-03-05T07:31:15.541Z,101896.22
2023-03-05T07:33:43.389Z,101897.91
2023-03-05T07:36:12.359Z,101895.00
2023-03-05T07:38:40.177Z,101894.88
2023-03-05T07:41:10.229Z,101889.22
2023-03-05T07:43:38.400Z,101889.88
2023-03-05T07:46:08.081Z,101892.44
2023-03-05T07:48:37.516Z,101893.22
2023-03-05T07:51:06.691Z,101889.47
2023-03-05T07:53:34.494Z,101896.50
2023-03-05T07:56:02.248Z,101888.47
2023-03-05T07:58:30.157Z,101901.28
2023-03-05T08:00:57.878Z,101900.34
2023-03-05T08:03:25.716Z,101898.81
2023-03-05T08:05:54.803Z,101901.25
2023-03-05T08:08:22.641Z,101901.94
2023-03-05T08:10:50.411Z,101894.41
2023-03-05T08:13:18.161Z,101905.19
2023-03-05T08:15:46.229Z,101893.38
2023-03-05T08:18:15.533Z,101888.88
2023-03-05T08:20:43.302Z,101882.44
2023-03-05T08:23:12.451Z,101877.72
2023-03-05T08:25:40.238Z,101870.50
2023-03-05T08:28:08.026Z,101866.81
2023-03-05T08:30:35.782Z,101860.28
2023-03-05T08:33:03.555Z,101860.13
2023-03-05T08:35:31.465Z,101863.41
2023-03-05T08:37:59.204Z,101858.75
2023-03-05T08:40:28.380Z,101858.53
2023-03-05T08:42:56.153Z,101860.13
2023-03-05T08:45:24.675Z,101855.53
2023-03-05T08:47:52.374Z,101840.16
2023-03-05T08:50:22.273Z,101855.72
2023-03-05T08:52:50.190Z,101847.44
2023-03-05T08:55:18.010Z,101842.69
2023-03-05T08:57:47.099Z,101850.44
2023-03-05T09:00:15.698Z,101848.34
2023-03-05T09:02:43.460Z,101846.06
2023-03-05T09:05:11.796Z,101842.81
2023-03-05T09:07:39.536Z,101837.94
2023-03-05T09:10:10.325Z,101843.97
2023-03-05T09:12:38.258Z,101842.81
2023-03-05T09:15:09.923Z,101833.47
2023-03-05T09:17:38.300Z,101835.84
2023-03-05T09:20:08.239Z,101830.31
2023-03-05T09:22:35.956Z,101828.38
2023-03-05T09:25:03.802Z,101829.88
2023-03-05T09:27:34.442Z,101833.09
2023-03-05T09:30:02.258Z,101827.56
2023-03-05T09:32:31.444Z,101825.03
2023-03-05T09:34:59.546Z,101831.41
2023-03-05T09:37:27.883Z,101831.06
2023-03-05T09:39:55.622Z,101823.50
2023-03-05T09:42:38.068Z,101822.38
2023-03-05T09:45:19.056Z,101818.31
2023-03-05T09:47:54.822Z,101821.84
2023-03-05T09:50:37.448Z,101821.53
2023-03-05T09:53:15.995Z,101819.53
2023-03-05T09:55:46.928Z,101825.88
2023-03-05T09:58:19.048Z,101818.75
2023-03-05T10:00:49.751Z,101816.75
2023-03-05T10:03:24.040Z,101814.50
2023-03-05T10:06:03.013Z,101816.97
2023-03-05T10:08:40.808Z,101814.78
2023-03-05T10:11:20.065Z,101810.09
2023-03-05T10:13:48.759Z,101806.34
2023-03-05T10:16:46.348Z,101810.69
2023-03-05T10:19:22.426Z,101814.88
2023-03-05T10:21:54.664Z,101815.56
2023-03-05T10:24:33.076Z,101809.34
2023-03-05T10:27:03.774Z,101812.09
2023-03-05T10:29:56.134Z,101800.22
2023-03-05T10:32:37.238Z,101796.34
2023-03-05T10:35:20.798Z,101797.47
2023-03-05T10:38:11.147Z,101799.78
2023-03-05T10:40:45.855Z,101789.34
2023-03-05T10:43:25.105Z,101789.34
2023-03-05T10:45:54.627Z,101794.38
2023-03-05T10:48:29.913Z,101787.59
2023-03-05T10:51:03.937Z,101778.41
2023-03-05T10:53:36.216Z,101771.44
2023-03-05T10:56:05.561Z,101768.44
2023-03-05T10:58:33.805Z,101765.56
2023-03-05T11:01:05.837Z,101762.66
2023-03-05T11:03:49.880Z,101750.59
2023-03-05T11:06:28.829Z,101744.31
2023-03-05T11:08:57.380Z,101744.19
2023-03-05T11:11:25.168Z,101744.28
2023-03-05T11:13:56.205Z,101740.38
2023-03-05T11:16:26.594Z,101736.56
2023-03-05T11:19:17.726Z,101728.66
2023-03-05T11:21:48.771Z,101727.50
2023-03-05T11:24:19.114Z,101715.84
2023-03-05T11:26:50.574Z,101709.25
2023-03-05T11:29:21.829Z,101709.38
2023-03-05T11:31:50.283Z,101704.97
2023-03-05T11:34:30.266Z,101698.06
2023-03-05T11:37:06.289Z,101699.75
2023-03-05T11:39:38.414Z,101690.66
2023-03-05T11:42:11.626Z,101689.78
2023-03-05T11:44:48.182Z,101681.31
2023-03-05T11:47:27.268Z,101699.44
2023-03-05T11:50:00.032Z,101683.25
2023-03-05T11:52:33.432Z,101689.88
2023-03-05T11:55:06.960Z,101677.50
2023-03-05T11:57:43.326Z,101685.16
2023-03-05T12:00:16.232Z,101671.16
2023-03-05T12:02:44.236Z,101674.53
2023-03-05T12:05:15.818Z,101666.75
2023-03-05T12:07:49.875Z,101664.19
2023-03-05T12:10:21.490Z,101661.06
2023-03-05T12:12:58.696Z,101652.72
2023-03-05T12:15:56.619Z,101640.63
2023-03-05T12:18:34.927Z,101636.19
2023-03-05T12:21:08.976Z,101637.88
2023-03-05T12:23:49.950Z,101626.91
2023-03-05T12:26:17.907Z,101617.84
2023-03-05T12:28:59.115Z,101614.75
2023-03-05T12:31:37.946Z,101608.03
2023-03-05T12:34:57.469Z,101600.88
2023-03-05T12:37:59.720Z,101602.09
2023-03-05T12:40:30.257Z,101591.66
2023-03-05T12:42:59.936Z,101594.78
2023-03-05T12:45:36.178Z,101583.56
2023-03-05T12:48:45.988Z,101587.09
2023-03-05T12:51:37.762Z,101577.19
2023-03-05T12:54:28.160Z,101575.47
2023-03-05T12:56:59.402Z,101574.81
2023-03-05T12:59:35.761Z,101557.56
2023-03-05T13:02:16.858Z,101550.09
2023-03-05T13:04:46.916Z,101549.22
2023-03-05T13:07:17.313Z,101547.03
2023-03-05T13:09:54.353Z,101535.06
2023-03-05T13:12:25.163Z,101535.59
2023-03-05T13:15:00.553Z,101531.38
2023-03-05T13:17:41.095Z,101528.88
2023-03-05T13:20:33.919Z,101519.22
2023-03-05T13:23:17.028Z,101514.78
2023-03-05T13:25:45.891Z,101508.91
2023-03-05T13:28:16.760Z,101505.00
2023-03-05T13:30:46.954Z,101501.13
2023-03-05T13:33:18.582Z,101494.19
2023-03-05T13:35:47.413Z,101500.81
2023-03-05T13:38:25.520Z,101496.53
2023-03-05T13:41:04.753Z,101492.84
2023-03-05T13:43:34.611Z,101483.19
2023-03-05T13:46:02.486Z,101484.81
2023-03-05T13:48:30.272Z,101482.75
2023-03-05T13:50:59.502Z,101476.38
2023-03-05T13:53:29.036Z,101470.97
2023-03-05T13:55:59.631Z,101478.31
2023-03-05T13:58:52.287Z,101480.25
2023-03-05T14:01:31.815Z,101471.28
2023-03-05T14:04:09.862Z,101471.41
2023-03-05T14:06:43.141Z,101471.84
2023-03-05T14:09:21.167Z,101466.66
2023-03-05T14:12:04.210Z,101462.72
2023-03-05T14:14:37.717Z,101463.63
2023-03-05T14:17:37.474Z,101458.34
2023-03-05T14:20:23.702Z,101450.00
2023-03-05T14:22:53.118Z,101451.50
2023-03-05T14:25:37.123Z,101450.53
2023-03-05T14:28:09.858Z,101443.53
2023-03-05T14:30:39.035Z,101440.50
2023-03-05T14:33:06.982Z,101439.44
2023-03-05T14:35:35.815Z,101425.59
2023-03-05T14:38:04.093Z,101426.34
2023-03-05T14:40:33.101Z,101420.75
2023-03-05T14:43:01.566Z,101421.28
2023-03-05T14:45:34.259Z,101422.91
2023-03-05T14:48:05.251Z,101416.53
2023-03-05T14:50:36.151Z,101413.41
2023-03-05T14:53:07.767Z,101401.59
2023-03-05T14:55:38.236Z,101398.25
2023-03-05T14:58:12.324Z,101395.97
2023-03-05T15:00:40.219Z,101389.91
2023-03-05T15:03:11.704Z,101382.66
2023-03-05T15:05:40.126Z,101376.63
2023-03-05T15:08:14.751Z,101375.09
2023-03-05T15:10:45.071Z,101371.75
2023-03-05T15:13:15.307Z,101375.84
2023-03-05T15:15:44.135Z,101372.84
2023-03-05T15:18:14.382Z,101371.34
2023-03-05T15:20:42.171Z,101365.06
2023-03-05T15:23:10.524Z,101364.41
2023-03-05T15:25:38.365Z,101362.47
2023-03-05T15:28:06.322Z,101356.88
2023-03-05T15:30:36.641Z,101345.84
2023-03-05T15:33:07.070Z,101346.78
2023-03-05T15:35:36.379Z,101347.75
2023-03-05T15:38:04.519Z,101342.47
2023-03-05T15:40:32.622Z,101340.31
2023-03-05T15:43:01.092Z,101342.16
2023-03-05T15:45:31.254Z,101339.16
2023-03-05T15:47:59.112Z,101339.22
2023-03-05T15:50:26.976Z,101333.97
2023-03-05T15:52:56.370Z,101332.41
2023-03-05T15:55:24.237Z,101327.91
2023-03-05T15:57:53.742Z,101325.09
2023-03-05T16:00:26.094Z,101324.63
2023-03-05T16:02:54.103Z,101316.00
2023-03-05T16:05:21.999Z,101314.47
2023-03-05T16:07:52.214Z,101314.25
2023-03-05T16:10:24.096Z,101305.50
2023-03-05T16:12:55.483Z,101305.28
2023-03-05T16:15:23.982Z,101300.44
2023-03-05T16:17:55.413Z,101301.41
2023-03-05T16:20:23.646Z,101303.03
2023-03-05T16:22:51.522Z,101300.63
2023-03-05T16:25:19.545Z,101293.94
2023-03-05T16:27:48.749Z,101304.94
2023-03-05T16:30:17.591Z,101291.56
2023-03-05T16:32:45.388Z,101294.91
2023-03-05T16:35:13.542Z,101293.25
2023-03-05T16:37:42.441Z,101284.59
2023-03-05T16:40:12.190Z,101285.16
2023-03-05T16:42:40.123Z,101282.38
2023-03-05T16:45:11.451Z,101288.59
2023-03-05T16:47:39.607Z,101280.31
2023-03-05T16:50:09.104Z,101282.88
2023-03-05T16:52:37.530Z,101279.41
2023-03-05T16:55:06.227Z,101275.56
2023-03-05T16:57:33.985Z,101274.00
2023-03-05T17:00:04.064Z,101266.94
2023-03-05T17:02:33.715Z,101274.25
2023-03-05T17:05:01.813Z,101271.16
2023-03-05T17:07:29.560Z,101271.44
2023-03-05T17:09:57.601Z,101262.50
2023-03-05T17:12:25.337Z,101262.06
2023-03-05T17:14:53.127Z,101263.69
2023-03-05T17:17:20.947Z,101261.00
2023-03-05T17:19:50.113Z,101263.56
2023-03-05T17:22:17.885Z,101261.44
2023-03-05T17:24:47.283Z,101259.63
2023-03-05T17:27:18.796Z,101263.19
2023-03-05T17:29:46.556Z,101257.13
2023-03-05T17:32:14.840Z,101253.50
2023-03-05T17:34:43.367Z,101259.66
2023-03-05T17:37:12.692Z,101257.63
2023-03-05T17:39:40.676Z,101253.13
2023-03-05T17:42:08.594Z,101250.25
2023-03-05T17:44:36.507Z,101246.88
2023-03-05T17:47:04.611Z,101256.69
2023-03-05T17:49:32.360Z,101247.78
2023-03-05T17:52:00.277Z,101248.72
2023-03-05T17:54:29.457Z,101248.41
2023-03-05T17:56:58.254Z,101246.03
2023-03-05T17:59:26.678Z,101253.22
2023-03-05T18:01:54.436Z,101249.00
2023-03-05T18:04:22.199Z,101252.09
2023-03-05T18:06:50.036Z,101246.13
2023-03-05T18:09:17.787Z,101246.88
2023-03-05T18:11:46.909Z,101245.38
2023-03-05T18:14:16.863Z,101244.50
2023-03-05T18:16:45.220Z,101241.16
2023-03-05T18:19:13.029Z,101246.44
2023-03-05T18:21:41.580Z,101238.44
2023-03-05T18:24:10.213Z,101242.78
2023-03-05T18:26:38.026Z,101235.44
2023-03-05T18:29:07.170Z,101235.94
2023-03-05T18:31:34.985Z,101234.19
2023-03-05T18:34:02.733Z,101231.50
2023-03-05T18:36:30.574Z,101224.50
2023-03-05T18:38:58.328Z,101218.72
2023-03-05T18:41:28.100Z,101220.19
2023-03-05T18:43:56.421Z,101218.44
2023-03-05T18:46:25.790Z,101215.56
2023-03-05T18:48:53.609Z,101218.25
2023-03-05T18:51:22.769Z,101209.91
2023-03-05T18:53:51.894Z,101210.09
2023-03-05T18:56:19.751Z,101213.72
2023-03-05T18:58:48.796Z,101198.75
2023-03-05T19:01:17.563Z,101205.88
2023-03-05T19:03:47.194Z,101197.00
2023-03-05T19:06:16.023Z,101193.53
2023-03-05T19:08:43.826Z,101197.28
2023-03-05T19:11:16.728Z,101185.00
2023-03-05T19:13:49.061Z,101186.91
2023-03-05T19:16:18.984Z,101187.78
2023-03-05T19:18:57.358Z,101176.63
2023-03-05T19:21:25.689Z,101175.41
2023-03-05T19:23:53.571Z,101176.25
2023-03-05T19:26:21.373Z,101177.31
2023-03-05T19:28:49.332Z,101169.63
2023-03-05T19:31:17.378Z,101169.13
2023-03-05T19:33:45.180Z,101165.38
2023-03-05T19:36:14.490Z,101160.88
2023-03-05T19:38:43.220Z,101158.19
2023-03-05T19:41:12.933Z,101155.50
2023-03-05T19:43:41.031Z,101149.16
2023-03-05T19:46:09.782Z,101145.31
2023-03-05T19:48:39.252Z,101148.78
2023-03-05T19:51:10.248Z,101142.34
2023-03-05T19:53:39.588Z,101145.59
2023-03-05T19:56:08.787Z,101137.81
2023-03-05T19:58:37.675Z,101143.19
2023-03-05T20:01:09.543Z,101139.66
2023-03-05T20:03:38.350Z,101132.66
2023-03-05T20:06:06.540Z,101130.63
2023-03-05T20:08:34.578Z,101135.91
2023-03-05T20:11:04.189Z,101127.94
2023-03-05T20:13:32.043Z,101124.56
2023-03-05T20:15:59.906Z,101135.22
2023-03-05T20:18:27.787Z,101124.47
2023-03-05T20:20:57.971Z,101135.22
2023-03-05T20:23:25.820Z,101129.38
2023-03-05T20:25:53.644Z,101129.47
2023-03-05T20:28:26.145Z,101124.97
2023-03-05T20:30:57.656Z,101117.28
2023-03-05T20:33:26.182Z,101123.50
2023-03-05T20:35:56.240Z,101119.88
2023-03-05T20:38:26.072Z,101110.84
2023-03-05T20:40:56.033Z,101112.97
2023-03-05T20:43:26.221Z,101116.50
2023-03-05T20:45:55.200Z,101118.50
2023-03-05T20:48:22.914Z,101120.16
2023-03-05T20:50:50.802Z,101114.00
2023-03-05T20:53:19.125Z,101111.31
2023-03-05T20:55:47.361Z,101116.88
2023-03-05T20:58:15.154Z,101112.28
2023-03-05T21:00:44.329Z,101106.50
2023-03-05T21:03:12.732Z,101111.91
2023-03-05T21:05:40.622Z,101107.38
2023-03-05T21:08:08.461Z,101103.03
2023-03-05T21:10:36.378Z,101095.75
2023-03-05T21:13:04.175Z,101099.13
2023-03-05T21:15:32.101Z,101101.53
2023-03-05T21:18:01.276Z,101087.97
2023-03-05T21:20:30.926Z,101096.81
2023-03-05T21:22:59.284Z,101086.06
2023-03-05T21:25:28.965Z,101077.91
2023-03-05T21:27:59.096Z,101082.31
2023-03-05T21:30:31.936Z,101073.38
2023-03-05T21:33:01.292Z,101073.38
2023-03-05T21:35:29.502Z,101074.31
2023-03-05T21:37:57.290Z,101061.94
2023-03-05T21:40:25.193Z,101064.72
2023-03-05T21:42:53.767Z,101063.97
2023-03-05T21:45:24.250Z,101056.22
2023-03-05T21:47:52.725Z,101052.84
2023-03-05T21:50:22.479Z,101062.94
2023-03-05T21:52:51.099Z,101051.56
2023-03-05T21:55:22.557Z,101051.56
2023-03-05T21:57:50.744Z,101052.56
2023-03-05T22:00:22.690Z,101041.81
2023-03-05T22:02:50.904Z,101038.25
2023-03-05T22:05:18.953Z,101034.88
2023-03-05T22:07:48.120Z,101034.81
2023-03-05T22:10:17.988Z,101030.38
2023-03-05T22:12:54.385Z,101028.81
2023-03-05T22:15:22.708Z,101020.28
2023-03-05T22:17:51.048Z,101019.34
2023-03-05T22:20:19.694Z,101014.25
2023-03-05T22:22:48.993Z,101011.72
2023-03-05T22:25:17.319Z,101010.88
2023-03-05T22:27:45.890Z,101005.63
2023-03-05T22:30:14.875Z,101008.31
2023-03-05T22:32:42.659Z,101001.19
2023-03-05T22:35:13.320Z,100997.56
2023-03-05T22:37:41.476Z,100994.88
2023-03-05T22:40:14.561Z,100986.88
2023-03-05T22:42:42.400Z,100982.50
2023-03-05T22:45:11.086Z,100983.44
2023-03-05T22:47:39.116Z,100980.94
2023-03-05T22:50:08.236Z,100981.81
2023-03-05T22:52:36.128Z,100972.78
2023-03-05T22:55:04.638Z,100970.19
2023-03-05T22:57:34.780Z,100961.56
2023-03-05T23:00:02.591Z,100957.25
2023-03-05T23:02:30.416Z,100958.97
2023-03-05T23:05:00.458Z,100960.03
2023-03-05T23:07:30.485Z,100953.88
2023-03-05T23:09:59.749Z,100951.38
2023-03-05T23:12:29.540Z,100947.06
2023-03-05T23:15:00.212Z,100939.38
2023-03-05T23:17:28.137Z,100946.47
2023-03-05T23:19:56.159Z,100941.22
2023-03-05T23:22:24.009Z,100939.47
2023-03-05T23:24:51.858Z,100937.00
2023-03-05T23:27:20.783Z,100937.06
2023-03-05T23:29:58.829Z,100932.75
2023-03-05T23:32:30.413Z,100934.59
2023-03-05T23:34:58.235Z,100927.59
2023-03-05T23:37:26.014Z,100927.78
2023-03-05T23:39:53.756Z,100922.59
2023-03-05T23:42:21.537Z,100924.50
2023-03-05T23:44:49.362Z,100928.25
2023-03-05T23:47:17.083Z,100934.75
2023-03-05T23:49:46.284Z,100928.91
2023-03-05T23:52:14.048Z,100931.84
2023-03-05T23:54:41.806Z,100923.34
2023-03-05T23:57:09.546Z,100925.13
2023-03-05T23:59:37.441Z,100926.97
